createdAt,value
2019-03-23T00:00:24.309Z,14.00
2019-03-23T00:01:57.115Z,13.03
2019-03-23T00:03:29.916Z,12.70
2019-03-23T00:05:02.704Z,13.65
2019-03-23T00:06:35.466Z,12.47
2019-03-23T00:08:08.274Z,13.50
2019-03-23T00:09:41.085Z,12.85
2019-03-23T00:11:13.849Z,13.55
2019-03-23T00:12:46.556Z,13.13
2019-03-23T00:14:19.356Z,13.88
2019-03-23T00:15:52.072Z,13.48
2019-03-23T00:17:24.769Z,13.08
2019-03-23T00:18:57.572Z,12.93
2019-03-23T00:20:30.263Z,14.10
2019-03-23T00:22:02.932Z,13.38
2019-03-23T00:23:35.733Z,13.65
2019-03-23T00:25:08.552Z,12.85
2019-03-23T00:26:41.348Z,13.03
2019-03-23T00:28:14.125Z,12.73
2019-03-23T00:29:46.842Z,12.95
2019-03-23T00:31:19.565Z,13.03
2019-03-23T00:32:52.308Z,12.78
2019-03-23T00:34:25.079Z,13.48
2019-03-23T00:35:57.764Z,12.95
2019-03-23T00:37:30.423Z,12.88
2019-03-23T00:39:04.792Z,12.53
2019-03-23T00:40:37.460Z,13.43
2019-03-23T00:42:10.262Z,12.23
2019-03-23T00:43:43.033Z,12.98
2019-03-23T00:45:15.697Z,13.10
2019-03-23T00:46:48.467Z,13.20
2019-03-23T00:48:21.265Z,12.63
2019-03-23T00:49:54.105Z,12.63
2019-03-23T00:51:26.784Z,12.93
2019-03-23T00:52:59.616Z,13.30
2019-03-23T00:54:32.409Z,13.32
2019-03-23T00:56:05.262Z,13.08
2019-03-23T00:57:38.037Z,12.70
2019-03-23T00:59:10.776Z,13.72
2019-03-23T01:00:43.553Z,13.60
2019-03-23T01:02:16.220Z,13.68
2019-03-23T01:03:48.990Z,13.08
2019-03-23T01:05:21.909Z,13.60
2019-03-23T01:06:54.770Z,12.50
2019-03-23T01:08:27.548Z,13.15
2019-03-23T01:10:00.339Z,12.85
2019-03-23T01:11:33.306Z,13.32
2019-03-23T01:13:06.043Z,12.35
2019-03-23T01:14:38.856Z,12.90
2019-03-23T01:16:11.634Z,12.58
2019-03-23T01:17:44.526Z,12.95
2019-03-23T01:19:17.254Z,12.37
2019-03-23T01:20:50.136Z,12.33
2019-03-23T01:22:23.008Z,12.90
2019-03-23T01:23:55.863Z,12.60
2019-03-23T01:25:28.775Z,12.70
2019-03-23T01:27:01.486Z,12.13
2019-03-23T01:28:34.284Z,12.80
2019-03-23T01:30:08.172Z,13.22
2019-03-23T01:31:40.969Z,13.22
2019-03-23T01:33:13.810Z,12.65
2019-03-23T01:34:46.603Z,12.70
2019-03-23T01:36:19.384Z,13.03
2019-03-23T01:37:52.237Z,13.32
2019-03-23T01:39:24.903Z,12.35
2019-03-23T01:40:57.678Z,12.53
2019-03-23T01:42:30.475Z,12.47
2019-03-23T01:44:03.936Z,12.45
2019-03-23T01:45:36.752Z,12.78
2019-03-23T01:47:09.556Z,12.40
2019-03-23T01:48:42.323Z,12.28
2019-03-23T01:50:15.224Z,12.40
2019-03-23T01:51:48.042Z,12.70
2019-03-23T01:53:20.832Z,11.93
2019-03-23T01:54:53.653Z,11.48
2019-03-23T01:56:26.465Z,11.90
2019-03-23T01:57:59.277Z,12.00
2019-03-23T01:59:32.088Z,11.48
2019-03-23T02:01:04.853Z,11.80
2019-03-23T02:02:37.512Z,11.45
2019-03-23T02:04:10.324Z,12.03
2019-03-23T02:05:43.235Z,11.20
2019-03-23T02:07:16.035Z,11.00
2019-03-23T02:08:48.850Z,11.30
2019-03-23T02:10:21.665Z,11.97
2019-03-23T02:11:54.480Z,11.55
2019-03-23T02:13:27.321Z,11.90
2019-03-23T02:15:00.318Z,11.75
2019-03-23T02:16:33.156Z,11.53
2019-03-23T02:18:05.962Z,12.18
2019-03-23T02:19:38.739Z,11.12
2019-03-23T02:21:11.574Z,12.05
2019-03-23T02:22:44.395Z,12.18
2019-03-23T02:24:17.157Z,11.50
2019-03-23T02:25:49.818Z,11.57
2019-03-23T02:27:22.533Z,11.43
2019-03-23T02:28:55.361Z,11.60
2019-03-23T02:30:28.325Z,12.50
2019-03-23T02:32:00.968Z,12.18
2019-03-23T02:33:33.791Z,11.73
2019-03-23T02:35:07.867Z,11.68
2019-03-23T02:36:40.681Z,12.15
2019-03-23T02:38:13.550Z,11.90
2019-03-23T02:39:46.402Z,11.57
2019-03-23T02:41:19.281Z,11.63
2019-03-23T02:42:52.073Z,12.43
2019-03-23T02:44:24.777Z,11.73
2019-03-23T02:45:57.596Z,12.13
2019-03-23T02:47:30.404Z,11.83
2019-03-23T02:49:03.288Z,11.30
2019-03-23T02:50:36.053Z,11.60
2019-03-23T02:52:08.673Z,11.73
2019-03-23T02:53:41.499Z,11.73
2019-03-23T02:55:14.351Z,11.90
2019-03-23T02:56:47.146Z,12.07
2019-03-23T02:58:19.914Z,11.85
2019-03-23T02:59:52.624Z,11.93
2019-03-23T03:01:25.260Z,11.60
2019-03-23T03:02:57.901Z,11.85
2019-03-23T03:04:30.723Z,11.30
2019-03-23T03:06:03.540Z,12.23
2019-03-23T03:07:42.705Z,12.15
2019-03-23T03:09:11.098Z,12.28
2019-03-23T03:10:43.769Z,11.15
2019-03-23T03:12:16.601Z,11.68
2019-03-23T03:13:49.321Z,12.07
2019-03-23T03:15:22.114Z,11.18
2019-03-23T03:16:54.945Z,11.65
2019-03-23T03:18:27.843Z,11.50
2019-03-23T03:20:00.584Z,11.73
2019-03-23T03:21:33.357Z,12.13
2019-03-23T03:23:06.150Z,11.53
2019-03-23T03:24:38.805Z,11.60
2019-03-23T03:26:11.543Z,10.80
2019-03-23T03:27:44.376Z,10.63
2019-03-23T03:29:17.176Z,15.70
2019-03-23T03:30:50.059Z,12.30
2019-03-23T03:32:22.684Z,12.18
2019-03-23T03:33:55.501Z,11.85
2019-03-23T03:35:28.341Z,12.35
2019-03-23T03:37:01.148Z,11.15
2019-03-23T03:38:33.970Z,11.65
2019-03-23T03:40:07.615Z,11.25
2019-03-23T03:41:40.424Z,11.38
2019-03-23T03:43:13.269Z,12.82
2019-03-23T03:44:45.939Z,12.18
2019-03-23T03:46:18.624Z,11.60
2019-03-23T03:47:51.451Z,11.85
2019-03-23T03:49:24.197Z,12.18
2019-03-23T03:50:56.899Z,11.83
2019-03-23T03:52:29.572Z,11.95
2019-03-23T03:54:02.427Z,12.07
2019-03-23T03:55:35.233Z,12.40
2019-03-23T03:57:08.057Z,12.15
2019-03-23T03:58:40.843Z,11.97
2019-03-23T04:00:13.743Z,11.53
2019-03-23T04:01:46.685Z,12.35
2019-03-23T04:03:19.478Z,12.50
2019-03-23T04:04:52.270Z,11.65
2019-03-23T04:06:25.108Z,11.40
2019-03-23T04:08:10.514Z,11.90
2019-03-23T04:09:32.635Z,11.85
2019-03-23T04:11:05.381Z,12.23
2019-03-23T04:12:38.114Z,12.10
2019-03-23T04:14:10.834Z,11.97
2019-03-23T04:15:43.643Z,12.47
2019-03-23T04:17:16.516Z,11.63
2019-03-23T04:18:49.389Z,12.28
2019-03-23T04:20:22.084Z,12.30
2019-03-23T04:21:54.843Z,11.78
2019-03-23T04:23:27.626Z,12.15
2019-03-23T04:25:00.585Z,11.50
2019-03-23T04:26:33.644Z,11.73
2019-03-23T04:28:06.345Z,12.13
2019-03-23T04:29:39.131Z,12.47
2019-03-23T04:31:11.886Z,13.20
2019-03-23T04:32:44.725Z,11.50
2019-03-23T04:34:17.609Z,11.15
2019-03-23T04:35:50.386Z,12.45
2019-03-23T04:37:23.190Z,12.45
2019-03-23T04:38:55.993Z,11.68
2019-03-23T04:40:28.820Z,12.30
2019-03-23T04:42:01.706Z,12.43
2019-03-23T04:43:34.487Z,12.25
2019-03-23T04:45:07.829Z,11.70
2019-03-23T04:46:40.624Z,11.93
2019-03-23T04:48:13.689Z,12.18
2019-03-23T04:49:46.634Z,11.95
2019-03-23T04:51:19.557Z,11.73
2019-03-23T04:52:52.298Z,11.33
2019-03-23T04:54:25.124Z,11.75
2019-03-23T04:55:57.948Z,11.38
2019-03-23T04:57:30.668Z,11.73
2019-03-23T04:59:03.523Z,11.75
2019-03-23T05:00:36.318Z,12.20
2019-03-23T05:02:08.948Z,12.30
2019-03-23T05:03:41.728Z,12.10
2019-03-23T05:05:14.389Z,11.28
2019-03-23T05:06:47.179Z,11.75
2019-03-23T05:08:19.854Z,11.80
2019-03-23T05:09:53.024Z,12.25
2019-03-23T05:11:25.835Z,12.65
2019-03-23T05:12:58.636Z,12.00
2019-03-23T05:14:31.310Z,11.38
2019-03-23T05:16:04.035Z,12.00
2019-03-23T05:17:36.828Z,10.93
2019-03-23T05:19:09.471Z,12.88
2019-03-23T05:20:42.132Z,11.63
2019-03-23T05:22:14.980Z,12.23
2019-03-23T05:23:47.758Z,12.70
2019-03-23T05:25:24.661Z,11.85
2019-03-23T05:26:57.547Z,12.13
2019-03-23T05:28:30.232Z,12.55
2019-03-23T05:30:03.420Z,12.78
2019-03-23T05:31:36.193Z,12.00
2019-03-23T05:33:09.055Z,12.15
2019-03-23T05:34:41.694Z,12.30
2019-03-23T05:36:15.437Z,11.88
2019-03-23T05:37:48.319Z,12.28
2019-03-23T05:39:21.121Z,12.90
2019-03-23T05:40:53.968Z,12.47
2019-03-23T05:42:26.757Z,12.50
2019-03-23T05:43:59.528Z,12.37
2019-03-23T05:45:32.254Z,13.05
2019-03-23T05:47:05.036Z,12.55
2019-03-23T05:48:37.737Z,11.97
2019-03-23T05:50:10.510Z,13.08
2019-03-23T05:51:43.264Z,13.08
2019-03-23T05:53:16.055Z,12.45
2019-03-23T05:54:48.698Z,12.15
2019-03-23T05:56:21.511Z,12.70
2019-03-23T05:57:54.288Z,13.03
2019-03-23T05:59:27.079Z,12.65
2019-03-23T06:00:59.885Z,12.73
2019-03-23T06:02:32.663Z,12.65
2019-03-23T06:04:05.364Z,13.00
2019-03-23T06:05:38.058Z,12.90
2019-03-23T06:07:10.852Z,13.15
2019-03-23T06:08:54.293Z,13.75
2019-03-23T06:10:18.247Z,13.90
2019-03-23T06:11:51.064Z,13.30
2019-03-23T06:13:23.752Z,13.65
2019-03-23T06:14:56.579Z,13.43
2019-03-23T06:16:29.244Z,13.35
2019-03-23T06:18:02.026Z,13.68
2019-03-23T06:19:34.803Z,14.03
2019-03-23T06:21:07.625Z,13.45
2019-03-23T06:22:40.475Z,14.10
2019-03-23T06:24:13.242Z,13.58
2019-03-23T06:25:46.026Z,13.75
2019-03-23T06:27:18.875Z,14.05
2019-03-23T06:28:51.542Z,14.25
2019-03-23T06:30:24.181Z,13.38
2019-03-23T06:31:56.855Z,13.45
2019-03-23T06:33:29.674Z,14.18
2019-03-23T06:35:02.715Z,14.25
2019-03-23T06:36:35.477Z,14.30
2019-03-23T06:38:08.339Z,13.95
2019-03-23T06:39:41.177Z,14.20
2019-03-23T06:41:13.988Z,14.50
2019-03-23T06:42:46.788Z,15.65
2019-03-23T06:44:19.628Z,15.45
2019-03-23T06:45:52.442Z,15.35
2019-03-23T06:47:25.250Z,15.28
2019-03-23T06:48:58.088Z,15.50
2019-03-23T06:50:30.986Z,14.87
2019-03-23T06:52:03.740Z,16.00
2019-03-23T06:53:36.520Z,16.50
2019-03-23T06:55:09.450Z,16.85
2019-03-23T06:56:42.189Z,16.25
2019-03-23T06:58:14.961Z,17.15
2019-03-23T06:59:47.762Z,16.95
2019-03-23T07:01:20.455Z,17.05
2019-03-23T07:02:53.233Z,18.10
2019-03-23T07:04:26.853Z,17.70
2019-03-23T07:05:59.838Z,17.57
2019-03-23T07:07:32.636Z,17.62
2019-03-23T07:09:15.812Z,17.75
2019-03-23T07:10:40.643Z,17.80
2019-03-23T07:12:13.425Z,18.02
2019-03-23T07:13:46.225Z,18.77
2019-03-23T07:15:20.380Z,17.07
2019-03-23T07:16:54.304Z,18.30
2019-03-23T07:18:27.153Z,17.32
2019-03-23T07:19:59.967Z,18.12
2019-03-23T07:21:32.764Z,19.00
2019-03-23T07:23:05.532Z,18.50
2019-03-23T07:24:38.318Z,19.73
2019-03-23T07:26:11.092Z,19.05
2019-03-23T07:27:43.891Z,19.98
2019-03-23T07:29:16.682Z,21.85
2019-03-23T07:30:49.490Z,21.87
2019-03-23T07:32:22.215Z,21.85
2019-03-23T07:33:55.830Z,22.35
2019-03-23T07:35:28.686Z,23.10
2019-03-23T07:37:01.513Z,25.05
2019-03-23T07:38:34.305Z,24.45
2019-03-23T07:40:07.130Z,24.40
2019-03-23T07:41:39.909Z,25.02
2019-03-23T07:43:13.757Z,25.32
2019-03-23T07:44:46.973Z,24.32
2019-03-23T07:46:20.744Z,24.85
2019-03-23T07:47:53.634Z,25.90
2019-03-23T07:49:27.403Z,25.05
2019-03-23T07:51:00.458Z,25.95
2019-03-23T07:52:33.552Z,26.52
2019-03-23T07:54:06.330Z,26.23
2019-03-23T07:55:39.156Z,25.15
2019-03-23T07:57:11.933Z,25.40
2019-03-23T07:58:44.651Z,25.62
2019-03-23T08:00:18.472Z,26.05
2019-03-23T08:01:51.279Z,26.07
2019-03-23T08:03:24.097Z,27.13
2019-03-23T08:04:56.902Z,27.40
2019-03-23T08:06:29.753Z,27.70
2019-03-23T08:08:02.457Z,28.30
2019-03-23T08:09:37.822Z,27.58
2019-03-23T08:11:10.004Z,27.48
2019-03-23T08:12:45.129Z,27.77
2019-03-23T08:14:17.901Z,29.72
2019-03-23T08:15:50.694Z,28.77
2019-03-23T08:17:23.533Z,30.43
2019-03-23T08:18:56.348Z,28.25
2019-03-23T08:20:29.169Z,29.87
2019-03-23T08:22:02.023Z,30.12
2019-03-23T08:23:34.889Z,31.07
2019-03-23T08:25:08.356Z,29.90
2019-03-23T08:26:42.518Z,31.65
2019-03-23T08:28:16.828Z,31.52
2019-03-23T08:29:49.877Z,32.55
2019-03-23T08:31:22.684Z,32.28
2019-03-23T08:32:55.526Z,31.93
2019-03-23T08:34:28.315Z,32.23
2019-03-23T08:36:01.177Z,31.50
2019-03-23T08:37:34.005Z,31.97
2019-03-23T08:39:07.131Z,33.33
2019-03-23T08:40:39.933Z,32.70
2019-03-23T08:42:12.734Z,33.60
2019-03-23T08:43:45.580Z,34.27
2019-03-23T08:45:18.416Z,34.38
2019-03-23T08:46:51.326Z,36.40
2019-03-23T08:48:24.188Z,37.28
2019-03-23T08:49:56.961Z,36.73
2019-03-23T08:51:29.666Z,35.55
2019-03-23T08:53:02.486Z,37.17
2019-03-23T08:54:35.342Z,36.42
2019-03-23T08:56:08.162Z,37.73
2019-03-23T08:57:41.501Z,37.55
2019-03-23T08:59:14.360Z,37.80
2019-03-23T09:00:47.141Z,37.20
2019-03-23T09:02:21.696Z,36.73
2019-03-23T09:03:54.646Z,36.80
2019-03-23T09:05:27.445Z,37.42
2019-03-23T09:07:00.229Z,38.20
2019-03-23T09:08:33.012Z,37.03
2019-03-23T09:10:06.320Z,38.65
2019-03-23T09:11:39.123Z,37.37
2019-03-23T09:13:11.915Z,38.60
2019-03-23T09:14:44.748Z,39.23
2019-03-23T09:16:17.494Z,38.67
2019-03-23T09:17:50.305Z,38.17
2019-03-23T09:19:22.995Z,38.63
2019-03-23T09:20:55.785Z,39.80
2019-03-23T09:22:28.479Z,39.20
2019-03-23T09:24:01.255Z,38.60
2019-03-23T09:25:34.141Z,38.97
2019-03-23T09:27:06.842Z,38.23
2019-03-23T09:28:39.732Z,38.80
2019-03-23T09:30:12.562Z,39.20
2019-03-23T09:31:45.302Z,40.67
2019-03-23T09:33:18.003Z,38.93
2019-03-23T09:34:50.870Z,39.20
2019-03-23T09:36:23.676Z,39.70
2019-03-23T09:37:56.503Z,40.47
2019-03-23T09:39:29.288Z,39.93
2019-03-23T09:41:02.074Z,40.77
2019-03-23T09:42:34.962Z,40.80
2019-03-23T09:44:07.897Z,40.53
2019-03-23T09:45:40.706Z,39.87
2019-03-23T09:47:13.550Z,39.13
2019-03-23T09:48:46.393Z,39.20
2019-03-23T09:50:19.356Z,40.90
2019-03-23T09:51:52.016Z,40.93
2019-03-23T09:53:24.825Z,39.53
2019-03-23T09:54:57.786Z,41.20
2019-03-23T09:56:30.577Z,40.83
2019-03-23T09:58:03.390Z,39.73
2019-03-23T09:59:36.212Z,40.83
2019-03-23T10:01:08.924Z,40.67
2019-03-23T10:02:41.599Z,39.17
2019-03-23T10:04:14.302Z,40.07
2019-03-23T10:05:47.118Z,39.90
2019-03-23T10:07:19.922Z,40.20
2019-03-23T10:08:52.721Z,41.47
2019-03-23T10:10:25.516Z,40.43
2019-03-23T10:11:59.310Z,39.07
2019-03-23T10:13:32.289Z,39.20
2019-03-23T10:15:10.456Z,39.50
2019-03-23T10:16:43.383Z,40.30
2019-03-23T10:18:16.154Z,40.13
2019-03-23T10:19:48.914Z,39.57
2019-03-23T10:21:21.594Z,39.60
2019-03-23T10:22:54.282Z,39.70
2019-03-23T10:24:27.005Z,39.47
2019-03-23T10:25:59.775Z,37.80
2019-03-23T10:27:32.437Z,39.60
2019-03-23T10:29:05.317Z,40.10
2019-03-23T10:30:38.146Z,39.13
2019-03-23T10:32:10.964Z,39.60
2019-03-23T10:33:43.767Z,39.90
2019-03-23T10:35:16.637Z,39.93
2019-03-23T10:36:49.297Z,40.27
2019-03-23T10:38:22.083Z,40.27
2019-03-23T10:39:55.014Z,40.60
2019-03-23T10:41:27.890Z,39.80
2019-03-23T10:43:00.615Z,40.67
2019-03-23T10:44:33.461Z,40.73
2019-03-23T10:46:06.205Z,39.03
2019-03-23T10:47:39.115Z,38.33
2019-03-23T10:49:12.043Z,38.83
2019-03-23T10:50:44.872Z,38.90
2019-03-23T10:52:17.583Z,39.90
2019-03-23T10:53:50.378Z,38.93
2019-03-23T10:55:23.231Z,40.10
2019-03-23T10:56:56.022Z,39.33
2019-03-23T10:58:28.827Z,38.97
2019-03-23T11:00:01.646Z,39.00
2019-03-23T11:01:34.468Z,38.63
2019-03-23T11:03:07.197Z,37.87
2019-03-23T11:04:40.157Z,36.97
2019-03-23T11:06:13.039Z,38.37
2019-03-23T11:07:45.675Z,36.83
2019-03-23T11:09:18.461Z,39.10
2019-03-23T11:10:51.275Z,38.27
2019-03-23T11:12:24.047Z,37.07
2019-03-23T11:13:56.803Z,38.97
2019-03-23T11:15:29.572Z,38.23
2019-03-23T11:17:02.458Z,37.87
2019-03-23T11:18:35.317Z,37.97
2019-03-23T11:20:08.492Z,38.97
2019-03-23T11:21:41.300Z,37.60
2019-03-23T11:23:14.133Z,38.57
2019-03-23T11:24:46.949Z,37.87
2019-03-23T11:26:19.779Z,39.27
2019-03-23T11:27:52.568Z,37.70
2019-03-23T11:29:25.261Z,42.20
2019-03-23T11:30:58.247Z,38.10
2019-03-23T11:32:31.076Z,39.50
2019-03-23T11:34:03.993Z,40.83
2019-03-23T11:35:36.778Z,39.90
2019-03-23T11:37:09.752Z,39.00
2019-03-23T11:38:42.688Z,37.57
2019-03-23T11:40:15.508Z,37.33
2019-03-23T11:41:48.329Z,40.03
2019-03-23T11:43:21.229Z,37.70
2019-03-23T11:44:53.934Z,38.90
2019-03-23T11:46:26.832Z,39.13
2019-03-23T11:47:59.652Z,38.03
2019-03-23T11:49:32.470Z,37.73
2019-03-23T11:51:05.313Z,37.70
2019-03-23T11:52:38.120Z,36.07
2019-03-23T11:54:10.940Z,36.83
2019-03-23T11:55:43.715Z,37.30
2019-03-23T11:57:16.506Z,39.10
2019-03-23T11:58:49.390Z,42.50
2019-03-23T12:00:22.081Z,44.03
2019-03-23T12:01:54.918Z,44.50
2019-03-23T12:03:27.710Z,46.77
2019-03-23T12:05:00.401Z,45.90
2019-03-23T12:06:33.202Z,47.17
2019-03-23T12:08:06.062Z,44.73
2019-03-23T12:09:38.895Z,45.10
2019-03-23T12:11:11.714Z,45.47
2019-03-23T12:12:44.552Z,46.13
2019-03-23T12:14:17.260Z,48.80
2019-03-23T12:15:50.071Z,46.03
2019-03-23T12:17:22.728Z,46.67
2019-03-23T12:18:55.577Z,47.60
2019-03-23T12:20:28.385Z,47.13
2019-03-23T12:22:01.246Z,48.23
2019-03-23T12:23:34.040Z,47.80
2019-03-23T12:25:07.172Z,47.87
2019-03-23T12:26:40.005Z,46.63
2019-03-23T12:28:12.828Z,50.03
2019-03-23T12:29:45.629Z,48.60
2019-03-23T12:31:18.448Z,49.63
2019-03-23T12:32:51.259Z,48.37
2019-03-23T12:34:24.001Z,47.70
2019-03-23T12:35:56.814Z,48.63
2019-03-23T12:37:29.608Z,46.53
2019-03-23T12:39:03.900Z,48.70
2019-03-23T12:40:36.657Z,47.83
2019-03-23T12:42:09.625Z,47.87
2019-03-23T12:43:42.406Z,47.50
2019-03-23T12:45:15.069Z,48.93
2019-03-23T12:46:48.594Z,45.77
2019-03-23T12:48:21.589Z,45.03
2019-03-23T12:49:54.396Z,46.63
2019-03-23T12:51:27.120Z,45.17
2019-03-23T12:52:59.961Z,54.23
2019-03-23T12:54:32.796Z,47.80
2019-03-23T12:56:05.741Z,48.10
2019-03-23T12:57:38.560Z,42.57
2019-03-23T12:59:11.374Z,51.93
2019-03-23T13:00:44.212Z,39.77
2019-03-23T13:02:17.013Z,41.60
2019-03-23T13:03:49.666Z,39.33
2019-03-23T13:05:22.480Z,42.10
2019-03-23T13:06:55.329Z,40.07
2019-03-23T13:08:28.163Z,40.97
2019-03-23T13:10:01.039Z,41.03
2019-03-23T13:11:35.375Z,40.33
2019-03-23T13:13:08.599Z,39.23
2019-03-23T13:14:41.384Z,40.07
2019-03-23T13:16:14.812Z,39.47
2019-03-23T13:17:47.911Z,39.40
2019-03-23T13:19:20.846Z,38.90
2019-03-23T13:20:53.674Z,40.53
2019-03-23T13:22:26.519Z,38.97
2019-03-23T13:23:59.381Z,39.40
2019-03-23T13:25:32.035Z,40.07
2019-03-23T13:27:04.672Z,39.90
2019-03-23T13:28:37.517Z,41.17
2019-03-23T13:30:10.623Z,38.60
2019-03-23T13:31:43.422Z,38.83
2019-03-23T13:33:16.128Z,40.67
2019-03-23T13:34:48.981Z,40.80
2019-03-23T13:36:21.717Z,40.43
2019-03-23T13:37:54.661Z,39.60
2019-03-23T13:39:27.639Z,38.40
2019-03-23T13:41:00.614Z,39.10
2019-03-23T13:42:34.177Z,39.37
2019-03-23T13:44:07.268Z,39.47
2019-03-23T13:45:42.736Z,38.63
2019-03-23T13:47:14.712Z,40.13
2019-03-23T13:48:47.521Z,39.20
2019-03-23T13:50:26.645Z,39.17
2019-03-23T13:51:59.435Z,41.13
2019-03-23T13:53:32.161Z,42.70
2019-03-23T13:55:05.479Z,40.80
2019-03-23T13:56:38.287Z,41.43
2019-03-23T13:58:11.917Z,41.83
2019-03-23T13:59:44.724Z,42.60
2019-03-23T14:01:17.559Z,43.33
2019-03-23T14:02:50.380Z,42.67
2019-03-23T14:04:23.180Z,42.07
2019-03-23T14:05:56.020Z,42.00
2019-03-23T14:07:28.663Z,41.10
2019-03-23T14:09:01.450Z,43.03
2019-03-23T14:10:34.368Z,42.53
2019-03-23T14:12:07.168Z,42.53
2019-03-23T14:13:40.017Z,40.50
2019-03-23T14:15:12.863Z,41.93
2019-03-23T14:16:45.756Z,41.63
2019-03-23T14:18:18.462Z,42.53
2019-03-23T14:19:51.323Z,42.20
2019-03-23T14:21:24.177Z,41.37
2019-03-23T14:23:02.708Z,41.80
2019-03-23T14:24:31.716Z,41.37
2019-03-23T14:26:04.556Z,43.47
2019-03-23T14:27:37.382Z,42.77
2019-03-23T14:29:10.890Z,43.00
2019-03-23T14:30:43.701Z,43.07
2019-03-23T14:32:16.578Z,42.67
2019-03-23T14:33:49.324Z,43.47
2019-03-23T14:35:22.157Z,41.20
2019-03-23T14:36:54.962Z,42.30
2019-03-23T14:38:27.766Z,41.47
2019-03-23T14:40:00.566Z,42.67
2019-03-23T14:41:33.393Z,42.30
2019-03-23T14:43:06.151Z,41.63
2019-03-23T14:44:38.930Z,41.67
2019-03-23T14:46:11.901Z,41.40
2019-03-23T14:47:44.714Z,41.97
2019-03-23T14:49:17.697Z,41.87
2019-03-23T14:50:50.485Z,40.73
2019-03-23T14:52:23.304Z,41.97
2019-03-23T14:53:56.138Z,41.63
2019-03-23T14:55:28.933Z,41.40
2019-03-23T14:57:01.759Z,40.47
2019-03-23T14:58:34.644Z,42.90
2019-03-23T15:00:08.362Z,43.03
2019-03-23T15:01:41.182Z,41.37
2019-03-23T15:03:14.059Z,43.17
2019-03-23T15:04:46.898Z,42.40
2019-03-23T15:06:19.701Z,41.60
2019-03-23T15:07:52.547Z,42.40
2019-03-23T15:09:25.390Z,41.80
2019-03-23T15:10:58.226Z,43.37
2019-03-23T15:12:30.936Z,40.80
2019-03-23T15:14:03.878Z,43.23
2019-03-23T15:15:36.649Z,44.07
2019-03-23T15:17:09.453Z,43.77
2019-03-23T15:18:42.351Z,43.67
2019-03-23T15:20:15.139Z,43.00
2019-03-23T15:21:47.817Z,43.93
2019-03-23T15:23:20.634Z,44.10
2019-03-23T15:24:53.317Z,43.90
2019-03-23T15:26:26.133Z,44.77
2019-03-23T15:27:58.959Z,45.00
2019-03-23T15:29:31.841Z,45.83
2019-03-23T15:31:04.665Z,45.70
2019-03-23T15:32:37.470Z,45.37
2019-03-23T15:34:10.357Z,45.63
2019-03-23T15:35:43.242Z,45.03
2019-03-23T15:37:16.169Z,46.77
2019-03-23T15:38:49.044Z,46.00
2019-03-23T15:40:21.948Z,46.18
2019-03-23T15:41:54.608Z,46.63
2019-03-23T15:43:27.436Z,46.23
2019-03-23T15:45:02.122Z,45.80
2019-03-23T15:46:34.925Z,45.73
2019-03-23T15:48:07.668Z,45.98
2019-03-23T15:49:40.465Z,46.48
2019-03-23T15:51:13.282Z,46.37
2019-03-23T15:52:45.954Z,46.65
2019-03-23T15:54:18.779Z,44.53
2019-03-23T15:55:52.060Z,47.00
2019-03-23T15:57:24.848Z,45.33
2019-03-23T15:58:57.593Z,47.20
2019-03-23T16:00:31.217Z,46.50
2019-03-23T16:02:04.057Z,46.00
2019-03-23T16:03:36.880Z,47.30
2019-03-23T16:05:09.683Z,46.00
2019-03-23T16:06:42.606Z,45.78
2019-03-23T16:08:15.612Z,46.92
2019-03-23T16:09:48.460Z,47.73
2019-03-23T16:11:21.356Z,48.85
2019-03-23T16:12:54.023Z,47.62
2019-03-23T16:14:26.839Z,48.00
2019-03-23T16:15:59.766Z,47.95
2019-03-23T16:17:32.499Z,48.13
2019-03-23T16:19:05.241Z,47.60
2019-03-23T16:20:38.012Z,48.38
2019-03-23T16:22:10.812Z,50.90
2019-03-23T16:23:43.597Z,47.93
2019-03-23T16:25:16.430Z,48.85
2019-03-23T16:26:49.260Z,47.35
2019-03-23T16:28:22.076Z,45.48
2019-03-23T16:29:54.831Z,46.45
2019-03-23T16:31:27.613Z,48.17
2019-03-23T16:33:00.530Z,47.40
2019-03-23T16:34:33.393Z,45.90
2019-03-23T16:36:06.241Z,47.80
2019-03-23T16:37:39.044Z,48.98
2019-03-23T16:39:11.904Z,46.70
2019-03-23T16:40:44.737Z,48.73
2019-03-23T16:42:17.500Z,46.95
2019-03-23T16:43:50.414Z,50.17
2019-03-23T16:45:23.219Z,48.87
2019-03-23T16:46:56.010Z,48.83
2019-03-23T16:48:28.867Z,47.58
2019-03-23T16:50:01.699Z,48.33
2019-03-23T16:51:34.544Z,49.75
2019-03-23T16:53:07.346Z,49.98
2019-03-23T16:54:40.145Z,49.85
2019-03-23T16:56:12.972Z,52.13
2019-03-23T16:57:45.798Z,51.45
2019-03-23T16:59:18.601Z,49.85
2019-03-23T17:00:51.267Z,50.83
2019-03-23T17:02:24.097Z,51.37
2019-03-23T17:03:56.848Z,51.02
2019-03-23T17:05:29.680Z,51.70
2019-03-23T17:07:02.476Z,52.13
2019-03-23T17:08:35.303Z,51.42
2019-03-23T17:10:08.556Z,51.42
2019-03-23T17:11:41.320Z,51.55
2019-03-23T17:13:14.140Z,52.17
2019-03-23T17:14:46.933Z,51.50
2019-03-23T17:16:19.776Z,51.30
2019-03-23T17:17:52.890Z,50.78
2019-03-23T17:19:25.797Z,52.33
2019-03-23T17:20:58.508Z,49.90
2019-03-23T17:22:34.777Z,52.27
2019-03-23T17:24:07.464Z,51.45
2019-03-23T17:25:40.305Z,52.40
2019-03-23T17:27:13.349Z,51.68
2019-03-23T17:28:46.255Z,53.20
2019-03-23T17:30:19.235Z,51.55
2019-03-23T17:31:52.132Z,51.58
2019-03-23T17:33:24.989Z,50.88
2019-03-23T17:34:57.789Z,52.53
2019-03-23T17:36:30.953Z,50.83
2019-03-23T17:38:03.692Z,51.20
2019-03-23T17:39:36.544Z,51.45
2019-03-23T17:41:10.336Z,52.78
2019-03-23T17:42:43.411Z,53.35
2019-03-23T17:44:16.438Z,50.15
2019-03-23T17:45:49.291Z,52.23
2019-03-23T17:47:22.148Z,52.70
2019-03-23T17:48:54.874Z,51.45
2019-03-23T17:50:37.417Z,51.80
2019-03-23T17:52:13.233Z,51.13
2019-03-23T17:53:46.356Z,51.42
2019-03-23T17:55:19.190Z,50.43
2019-03-23T17:56:51.978Z,51.23
2019-03-23T17:58:24.805Z,52.38
2019-03-23T17:59:57.602Z,52.15
2019-03-23T18:01:30.558Z,52.58
2019-03-23T18:03:03.353Z,51.13
2019-03-23T18:04:36.151Z,50.98
2019-03-23T18:06:08.814Z,52.17
2019-03-23T18:07:41.470Z,51.20
2019-03-23T18:09:14.140Z,51.05
2019-03-23T18:10:46.849Z,51.90
2019-03-23T18:12:19.698Z,50.83
2019-03-23T18:13:52.536Z,51.80
2019-03-23T18:15:25.255Z,52.05
2019-03-23T18:16:58.124Z,53.17
2019-03-23T18:18:31.133Z,52.27
2019-03-23T18:20:04.245Z,53.25
2019-03-23T18:21:37.120Z,52.33
2019-03-23T18:23:09.936Z,52.27
2019-03-23T18:24:42.742Z,53.28
2019-03-23T18:26:15.496Z,52.58
2019-03-23T18:27:48.251Z,50.67
2019-03-23T18:29:21.228Z,53.08
2019-03-23T18:30:54.218Z,52.17
2019-03-23T18:32:27.099Z,51.88
2019-03-23T18:33:59.978Z,51.65
2019-03-23T18:35:32.788Z,51.00
2019-03-23T18:37:05.684Z,51.20
2019-03-23T18:38:38.597Z,51.42
2019-03-23T18:40:11.352Z,51.85
2019-03-23T18:41:44.216Z,50.52
2019-03-23T18:43:26.707Z,52.05
2019-03-23T18:44:51.877Z,50.63
2019-03-23T18:46:24.767Z,50.63
2019-03-23T18:47:57.606Z,52.17
2019-03-23T18:49:30.328Z,52.23
2019-03-23T18:51:03.016Z,52.53
2019-03-23T18:52:35.822Z,52.30
2019-03-23T18:54:08.670Z,52.43
2019-03-23T18:55:41.456Z,52.25
2019-03-23T18:57:14.383Z,51.70
2019-03-23T18:58:47.093Z,51.35
2019-03-23T19:00:36.058Z,50.50
2019-03-23T19:02:08.857Z,51.42
2019-03-23T19:03:41.643Z,50.35
2019-03-23T19:05:14.452Z,50.45
2019-03-23T19:06:47.300Z,51.18
2019-03-23T19:08:20.116Z,48.75
2019-03-23T19:09:52.904Z,50.73
2019-03-23T19:11:25.719Z,51.55
2019-03-23T19:12:58.552Z,53.50
2019-03-23T19:14:31.373Z,51.85
2019-03-23T19:16:04.048Z,52.13
2019-03-23T19:17:36.819Z,52.62
2019-03-23T19:19:09.600Z,49.95
2019-03-23T19:20:42.507Z,51.35
2019-03-23T19:22:15.338Z,51.63
2019-03-23T19:23:48.264Z,51.37
2019-03-23T19:25:21.049Z,54.67
2019-03-23T19:26:53.993Z,55.88
2019-03-23T19:28:26.762Z,54.20
2019-03-23T19:29:59.542Z,55.15
2019-03-23T19:31:32.331Z,52.17
2019-03-23T19:33:06.283Z,51.25
2019-03-23T19:34:39.353Z,51.28
2019-03-23T19:36:12.065Z,51.48
2019-03-23T19:37:44.774Z,50.80
2019-03-23T19:39:17.531Z,49.50
2019-03-23T19:40:50.247Z,49.48
2019-03-23T19:42:22.868Z,50.05
2019-03-23T19:43:55.947Z,51.42
2019-03-23T19:45:28.732Z,51.50
2019-03-23T19:47:01.518Z,52.17
2019-03-23T19:48:34.170Z,50.65
2019-03-23T19:50:07.449Z,50.60
2019-03-23T19:51:40.306Z,49.75
2019-03-23T19:53:13.086Z,51.13
2019-03-23T19:54:45.890Z,50.33
2019-03-23T19:56:18.710Z,47.88